sensor_id;sensor_type;location;lat;lon;timestamp;temperature;humidity
30063;DHT22;16889;67.864;24.990;2023-12-07T00:00:34;-17.40;99.90
30063;DHT22;16889;67.864;24.990;2023-12-07T00:05:20;-17.40;99.90
30063;DHT22;16889;67.864;24.990;2023-12-07T00:10:06;-17.50;99.90
30063;DHT22;16889;67.864;24.990;2023-12-07T00:14:52;-17.70;99.90
30063;DHT22;16889;67.864;24.990;2023-12-07T00:19:38;-17.90;99.90
30063;DHT22;16889;67.864;24.990;2023-12-07T00:24:24;-17.80;99.90
30063;DHT22;16889;67.864;24.990;2023-12-07T00:29:10;-17.70;99.90
30063;DHT22;16889;67.864;24.990;2023-12-07T00:33:56;-17.50;99.90
30063;DHT22;16889;67.864;24.990;2023-12-07T00:38:42;-17.80;99.90
30063;DHT22;16889;67.864;24.990;2023-12-07T00:43:27;-17.90;99.90
30063;DHT22;16889;67.864;24.990;2023-12-07T00:48:14;-17.90;99.90
30063;DHT22;16889;67.864;24.990;2023-12-07T00:53:00;-17.80;99.90
30063;DHT22;16889;67.864;24.990;2023-12-07T00:57:46;-17.50;99.90
30063;DHT22;16889;67.864;24.990;2023-12-07T01:02:32;-17.30;99.90
30063;DHT22;16889;67.864;24.990;2023-12-07T01:07:18;-17.10;99.90
30063;DHT22;16889;67.864;24.990;2023-12-07T01:12:04;-16.70;99.90
30063;DHT22;16889;67.864;24.990;2023-12-07T01:16:50;-16.20;99.90
30063;DHT22;16889;67.864;24.990;2023-12-07T01:21:36;-15.80;99.90
30063;DHT22;16889;67.864;24.990;2023-12-07T01:26:22;-15.60;99.90
30063;DHT22;16889;67.864;24.990;2023-12-07T01:31:07;-15.30;99.90
30063;DHT22;16889;67.864;24.990;2023-12-07T01:35:53;-15.10;99.90
30063;DHT22;16889;67.864;24.990;2023-12-07T01:40:39;-15.10;99.90
30063;DHT22;16889;67.864;24.990;2023-12-07T01:45:25;-15.00;99.90
30063;DHT22;16889;67.864;24.990;2023-12-07T01:50:12;-14.90;99.90
30063;DHT22;16889;67.864;24.990;2023-12-07T01:55:01;-15.00;99.90
30063;DHT22;16889;67.864;24.990;2023-12-07T01:59:49;-15.00;99.90
30063;DHT22;16889;67.864;24.990;2023-12-07T02:04:36;-14.80;99.90
30063;DHT22;16889;67.864;24.990;2023-12-07T02:09:22;-14.80;99.90
30063;DHT22;16889;67.864;24.990;2023-12-07T02:14:07;-14.90;99.90
30063;DHT22;16889;67.864;24.990;2023-12-07T02:24:03;-14.90;99.90
30063;DHT22;16889;67.864;24.990;2023-12-07T02:28:51;-14.80;99.90
30063;DHT22;16889;67.864;24.990;2023-12-07T02:33:38;-14.80;99.90
30063;DHT22;16889;67.864;24.990;2023-12-07T02:38:26;-14.80;99.90
30063;DHT22;16889;67.864;24.990;2023-12-07T02:43:13;-14.70;99.90
30063;DHT22;16889;67.864;24.990;2023-12-07T02:48:02;-14.70;99.90
30063;DHT22;16889;67.864;24.990;2023-12-07T02:52:48;-14.60;99.90
30063;DHT22;16889;67.864;24.990;2023-12-07T02:57:34;-14.60;99.90
30063;DHT22;16889;67.864;24.990;2023-12-07T03:02:20;-14.50;99.90
30063;DHT22;16889;67.864;24.990;2023-12-07T03:07:06;-14.60;99.90
30063;DHT22;16889;67.864;24.990;2023-12-07T03:11:52;-14.50;99.90
30063;DHT22;16889;67.864;24.990;2023-12-07T03:16:38;-14.50;99.90
30063;DHT22;16889;67.864;24.990;2023-12-07T03:21:24;-14.50;99.90
30063;DHT22;16889;67.864;24.990;2023-12-07T03:26:10;-14.40;99.90
30063;DHT22;16889;67.864;24.990;2023-12-07T03:30:56;-14.40;99.90
30063;DHT22;16889;67.864;24.990;2023-12-07T03:35:42;-14.30;99.90
30063;DHT22;16889;67.864;24.990;2023-12-07T03:40:28;-14.20;99.90
30063;DHT22;16889;67.864;24.990;2023-12-07T03:45:14;-14.10;99.90
30063;DHT22;16889;67.864;24.990;2023-12-07T03:49:59;-14.20;99.90
30063;DHT22;16889;67.864;24.990;2023-12-07T03:54:45;-14.10;99.90
30063;DHT22;16889;67.864;24.990;2023-12-07T03:59:31;-14.10;99.90
30063;DHT22;16889;67.864;24.990;2023-12-07T04:04:17;-14.10;99.90
30063;DHT22;16889;67.864;24.990;2023-12-07T04:09:04;-14.10;99.90
30063;DHT22;16889;67.864;24.990;2023-12-07T04:13:51;-14.10;99.90
30063;DHT22;16889;67.864;24.990;2023-12-07T04:18:37;-14.10;99.90
30063;DHT22;16889;67.864;24.990;2023-12-07T04:23:23;-14.10;99.90
30063;DHT22;16889;67.864;24.990;2023-12-07T04:28:09;-14.20;99.90
30063;DHT22;16889;67.864;24.990;2023-12-07T04:32:55;-14.10;99.90
30063;DHT22;16889;67.864;24.990;2023-12-07T04:37:41;-14.00;99.90
30063;DHT22;16889;67.864;24.990;2023-12-07T04:42:27;-13.90;99.90
30063;DHT22;16889;67.864;24.990;2023-12-07T04:47:13;-14.20;99.90
30063;DHT22;16889;67.864;24.990;2023-12-07T04:51:59;-14.30;99.90
30063;DHT22;16889;67.864;24.990;2023-12-07T04:56:45;-14.30;99.90
30063;DHT22;16889;67.864;24.990;2023-12-07T05:01:32;-14.30;99.90
30063;DHT22;16889;67.864;24.990;2023-12-07T05:06:18;-14.30;99.90
30063;DHT22;16889;67.864;24.990;2023-12-07T05:11:04;-14.20;99.90
30063;DHT22;16889;67.864;24.990;2023-12-07T05:15:50;-14.10;99.90
30063;DHT22;16889;67.864;24.990;2023-12-07T05:20:36;-14.20;99.90
30063;DHT22;16889;67.864;24.990;2023-12-07T05:25:25;-14.30;99.90
30063;DHT22;16889;67.864;24.990;2023-12-07T05:30:10;-14.40;99.90
30063;DHT22;16889;67.864;24.990;2023-12-07T05:34:56;-14.50;99.90
30063;DHT22;16889;67.864;24.990;2023-12-07T05:39:42;-14.60;99.90
30063;DHT22;16889;67.864;24.990;2023-12-07T05:44:28;-14.60;99.90
30063;DHT22;16889;67.864;24.990;2023-12-07T05:49:15;-14.50;99.90
30063;DHT22;16889;67.864;24.990;2023-12-07T05:54:01;-14.50;99.90
30063;DHT22;16889;67.864;24.990;2023-12-07T05:58:48;-14.40;99.90
30063;DHT22;16889;67.864;24.990;2023-12-07T06:03:33;-14.50;99.90
30063;DHT22;16889;67.864;24.990;2023-12-07T06:08:21;-14.60;99.90
30063;DHT22;16889;67.864;24.990;2023-12-07T06:13:07;-14.60;99.90
30063;DHT22;16889;67.864;24.990;2023-12-07T06:17:54;-14.60;99.90
30063;DHT22;16889;67.864;24.990;2023-12-07T06:22:40;-14.60;99.90
30063;DHT22;16889;67.864;24.990;2023-12-07T06:27:26;-14.50;99.90
30063;DHT22;16889;67.864;24.990;2023-12-07T06:32:12;-14.40;99.90
30063;DHT22;16889;67.864;24.990;2023-12-07T06:36:58;-14.30;99.90
30063;DHT22;16889;67.864;24.990;2023-12-07T06:41:43;-14.20;99.90
30063;DHT22;16889;67.864;24.990;2023-12-07T06:46:29;-14.30;99.90
30063;DHT22;16889;67.864;24.990;2023-12-07T06:51:15;-14.30;99.90
30063;DHT22;16889;67.864;24.990;2023-12-07T06:56:01;-14.20;99.90
30063;DHT22;16889;67.864;24.990;2023-12-07T07:00:47;-14.20;99.90
30063;DHT22;16889;67.864;24.990;2023-12-07T07:05:34;-14.20;99.90
30063;DHT22;16889;67.864;24.990;2023-12-07T07:10:20;-14.10;99.90
30063;DHT22;16889;67.864;24.990;2023-12-07T07:15:08;-14.00;99.90
30063;DHT22;16889;67.864;24.990;2023-12-07T07:19:54;-13.90;99.90
30063;DHT22;16889;67.864;24.990;2023-12-07T07:24:41;-13.90;99.90
30063;DHT22;16889;67.864;24.990;2023-12-07T07:29:27;-13.90;99.90
30063;DHT22;16889;67.864;24.990;2023-12-07T07:34:13;-13.90;99.90
30063;DHT22;16889;67.864;24.990;2023-12-07T07:38:59;-13.70;99.90
30063;DHT22;16889;67.864;24.990;2023-12-07T07:43:45;-13.80;99.90
30063;DHT22;16889;67.864;24.990;2023-12-07T07:48:31;-13.90;99.90
30063;DHT22;16889;67.864;24.990;2023-12-07T07:53:17;-13.70;99.90
30063;DHT22;16889;67.864;24.990;2023-12-07T07:58:03;-13.60;99.90
30063;DHT22;16889;67.864;24.990;2023-12-07T08:02:49;-13.70;99.90
30063;DHT22;16889;67.864;24.990;2023-12-07T08:07:35;-13.60;99.90
30063;DHT22;16889;67.864;24.990;2023-12-07T08:12:21;-13.50;99.90
30063;DHT22;16889;67.864;24.990;2023-12-07T08:17:11;-13.40;99.90
30063;DHT22;16889;67.864;24.990;2023-12-07T08:21:57;-13.30;99.90
30063;DHT22;16889;67.864;24.990;2023-12-07T08:26:44;-13.30;99.90
30063;DHT22;16889;67.864;24.990;2023-12-07T08:31:30;-13.20;99.90
30063;DHT22;16889;67.864;24.990;2023-12-07T08:36:16;-13.30;99.90
30063;DHT22;16889;67.864;24.990;2023-12-07T08:41:02;-13.30;99.90
30063;DHT22;16889;67.864;24.990;2023-12-07T08:45:49;-13.20;99.90
30063;DHT22;16889;67.864;24.990;2023-12-07T08:50:35;-13.10;99.90
30063;DHT22;16889;67.864;24.990;2023-12-07T08:55:22;-13.10;99.90
30063;DHT22;16889;67.864;24.990;2023-12-07T09:00:08;-13.00;99.90
30063;DHT22;16889;67.864;24.990;2023-12-07T09:04:54;-13.00;99.90
30063;DHT22;16889;67.864;24.990;2023-12-07T09:09:40;-13.00;99.90
30063;DHT22;16889;67.864;24.990;2023-12-07T09:14:31;-13.10;99.90
30063;DHT22;16889;67.864;24.990;2023-12-07T09:19:18;-13.20;99.90
30063;DHT22;16889;67.864;24.990;2023-12-07T09:24:04;-13.20;99.90
30063;DHT22;16889;67.864;24.990;2023-12-07T09:28:52;-13.20;99.90
30063;DHT22;16889;67.864;24.990;2023-12-07T09:33:38;-13.00;99.90
30063;DHT22;16889;67.864;24.990;2023-12-07T09:38:24;-12.90;99.90
30063;DHT22;16889;67.864;24.990;2023-12-07T09:43:09;-12.80;99.90
30063;DHT22;16889;67.864;24.990;2023-12-07T09:47:55;-12.60;99.90
30063;DHT22;16889;67.864;24.990;2023-12-07T09:52:43;-12.40;99.90
30063;DHT22;16889;67.864;24.990;2023-12-07T09:57:29;-12.50;99.90
30063;DHT22;16889;67.864;24.990;2023-12-07T10:02:15;-12.90;99.90
30063;DHT22;16889;67.864;24.990;2023-12-07T10:07:01;-13.10;99.90
30063;DHT22;16889;67.864;24.990;2023-12-07T10:11:48;-13.00;99.90
30063;DHT22;16889;67.864;24.990;2023-12-07T10:16:34;-13.00;99.90
30063;DHT22;16889;67.864;24.990;2023-12-07T10:21:32;-13.10;99.90
30063;DHT22;16889;67.864;24.990;2023-12-07T10:26:19;-13.10;99.90
30063;DHT22;16889;67.864;24.990;2023-12-07T10:31:09;-13.00;99.90
30063;DHT22;16889;67.864;24.990;2023-12-07T10:35:55;-13.00;99.90
30063;DHT22;16889;67.864;24.990;2023-12-07T10:40:41;-13.00;99.90
30063;DHT22;16889;67.864;24.990;2023-12-07T10:45:30;-13.00;99.90
30063;DHT22;16889;67.864;24.990;2023-12-07T10:50:21;-12.80;99.90
30063;DHT22;16889;67.864;24.990;2023-12-07T10:55:18;-12.70;99.90
30063;DHT22;16889;67.864;24.990;2023-12-07T11:00:07;-12.60;99.90
30063;DHT22;16889;67.864;24.990;2023-12-07T11:04:57;-12.70;99.90
30063;DHT22;16889;67.864;24.990;2023-12-07T11:09:47;-12.70;99.90
30063;DHT22;16889;67.864;24.990;2023-12-07T11:14:38;-12.60;99.90
30063;DHT22;16889;67.864;24.990;2023-12-07T11:24:23;-12.40;99.90
30063;DHT22;16889;67.864;24.990;2023-12-07T11:29:09;-12.30;99.90
30063;DHT22;16889;67.864;24.990;2023-12-07T11:33:55;-12.30;99.90
30063;DHT22;16889;67.864;24.990;2023-12-07T11:44:01;-12.20;99.90
30063;DHT22;16889;67.864;24.990;2023-12-07T11:48:48;-12.20;99.90
30063;DHT22;16889;67.864;24.990;2023-12-07T11:53:36;-12.20;99.90
30063;DHT22;16889;67.864;24.990;2023-12-07T11:58:22;-12.20;99.90
30063;DHT22;16889;67.864;24.990;2023-12-07T12:03:09;-12.20;99.90
30063;DHT22;16889;67.864;24.990;2023-12-07T12:07:56;-12.20;99.90
30063;DHT22;16889;67.864;24.990;2023-12-07T12:12:42;-12.20;99.90
30063;DHT22;16889;67.864;24.990;2023-12-07T12:17:28;-12.20;99.90
30063;DHT22;16889;67.864;24.990;2023-12-07T12:22:14;-12.20;99.90
30063;DHT22;16889;67.864;24.990;2023-12-07T12:27:00;-12.10;99.90
30063;DHT22;16889;67.864;24.990;2023-12-07T12:31:47;-12.20;99.90
30063;DHT22;16889;67.864;24.990;2023-12-07T12:36:33;-12.20;99.90
30063;DHT22;16889;67.864;24.990;2023-12-07T12:41:19;-12.20;99.90
30063;DHT22;16889;67.864;24.990;2023-12-07T12:46:05;-12.30;99.90
30063;DHT22;16889;67.864;24.990;2023-12-07T12:50:51;-12.40;99.90
30063;DHT22;16889;67.864;24.990;2023-12-07T12:55:39;-12.30;99.90
30063;DHT22;16889;67.864;24.990;2023-12-07T13:00:26;-12.20;99.90
30063;DHT22;16889;67.864;24.990;2023-12-07T13:05:12;-12.20;99.90
30063;DHT22;16889;67.864;24.990;2023-12-07T13:09:58;-12.30;99.90
30063;DHT22;16889;67.864;24.990;2023-12-07T13:14:44;-12.40;99.90
30063;DHT22;16889;67.864;24.990;2023-12-07T13:19:30;-12.40;99.90
30063;DHT22;16889;67.864;24.990;2023-12-07T13:24:17;-12.50;99.90
30063;DHT22;16889;67.864;24.990;2023-12-07T13:29:03;-12.40;99.90
30063;DHT22;16889;67.864;24.990;2023-12-07T13:33:50;-12.20;99.90
30063;DHT22;16889;67.864;24.990;2023-12-07T13:38:36;-12.10;99.90
30063;DHT22;16889;67.864;24.990;2023-12-07T13:43:22;-12.10;99.90
30063;DHT22;16889;67.864;24.990;2023-12-07T13:48:11;-12.00;99.90
30063;DHT22;16889;67.864;24.990;2023-12-07T13:52:58;-12.00;99.90
30063;DHT22;16889;67.864;24.990;2023-12-07T13:57:44;-12.20;99.90
30063;DHT22;16889;67.864;24.990;2023-12-07T14:02:30;-12.20;99.90
30063;DHT22;16889;67.864;24.990;2023-12-07T14:07:17;-12.10;99.90
30063;DHT22;16889;67.864;24.990;2023-12-07T14:12:04;-12.00;99.90
30063;DHT22;16889;67.864;24.990;2023-12-07T14:16:50;-11.90;99.90
30063;DHT22;16889;67.864;24.990;2023-12-07T14:21:36;-12.00;99.90
30063;DHT22;16889;67.864;24.990;2023-12-07T14:26:22;-11.90;99.90
30063;DHT22;16889;67.864;24.990;2023-12-07T14:31:08;-11.90;99.90
30063;DHT22;16889;67.864;24.990;2023-12-07T14:36:02;-11.70;99.90
30063;DHT22;16889;67.864;24.990;2023-12-07T14:40:49;-11.70;99.90
30063;DHT22;16889;67.864;24.990;2023-12-07T14:45:36;-11.60;99.90
30063;DHT22;16889;67.864;24.990;2023-12-07T14:50:22;-11.60;99.90
30063;DHT22;16889;67.864;24.990;2023-12-07T14:55:08;-11.50;99.90
30063;DHT22;16889;67.864;24.990;2023-12-07T14:59:54;-11.50;99.90
30063;DHT22;16889;67.864;24.990;2023-12-07T15:04:43;-11.40;99.90
30063;DHT22;16889;67.864;24.990;2023-12-07T15:09:29;-11.40;99.90
30063;DHT22;16889;67.864;24.990;2023-12-07T15:14:16;-11.40;99.90
30063;DHT22;16889;67.864;24.990;2023-12-07T15:19:02;-11.30;99.90
30063;DHT22;16889;67.864;24.990;2023-12-07T15:23:48;-11.20;99.90
30063;DHT22;16889;67.864;24.990;2023-12-07T15:28:36;-11.10;99.90
30063;DHT22;16889;67.864;24.990;2023-12-07T15:33:22;-11.10;99.90
30063;DHT22;16889;67.864;24.990;2023-12-07T15:38:08;-11.00;99.90
30063;DHT22;16889;67.864;24.990;2023-12-07T15:42:56;-11.10;99.90
30063;DHT22;16889;67.864;24.990;2023-12-07T15:47:42;-11.10;99.90
30063;DHT22;16889;67.864;24.990;2023-12-07T15:52:28;-11.00;99.90
30063;DHT22;16889;67.864;24.990;2023-12-07T15:57:14;-11.00;99.90
30063;DHT22;16889;67.864;24.990;2023-12-07T16:02:00;-11.00;99.90
30063;DHT22;16889;67.864;24.990;2023-12-07T16:06:46;-11.00;99.90
30063;DHT22;16889;67.864;24.990;2023-12-07T16:11:32;-11.10;99.90
30063;DHT22;16889;67.864;24.990;2023-12-07T16:16:18;-11.10;99.90
30063;DHT22;16889;67.864;24.990;2023-12-07T16:21:04;-11.00;99.90
30063;DHT22;16889;67.864;24.990;2023-12-07T16:25:50;-10.90;99.90
30063;DHT22;16889;67.864;24.990;2023-12-07T16:30:37;-10.90;99.90
30063;DHT22;16889;67.864;24.990;2023-12-07T16:35:22;-10.80;99.90
30063;DHT22;16889;67.864;24.990;2023-12-07T16:40:09;-10.70;99.90
30063;DHT22;16889;67.864;24.990;2023-12-07T16:44:55;-10.80;99.90
30063;DHT22;16889;67.864;24.990;2023-12-07T16:49:41;-10.70;99.90
30063;DHT22;16889;67.864;24.990;2023-12-07T16:54:28;-10.50;99.90
30063;DHT22;16889;67.864;24.990;2023-12-07T16:59:14;-10.50;99.90
30063;DHT22;16889;67.864;24.990;2023-12-07T17:04:02;-10.40;99.90
30063;DHT22;16889;67.864;24.990;2023-12-07T17:08:48;-10.20;99.90
30063;DHT22;16889;67.864;24.990;2023-12-07T17:13:37;-10.40;99.90
30063;DHT22;16889;67.864;24.990;2023-12-07T17:18:23;-10.30;99.90
30063;DHT22;16889;67.864;24.990;2023-12-07T17:23:09;-10.30;99.90
30063;DHT22;16889;67.864;24.990;2023-12-07T17:27:55;-10.40;99.90
30063;DHT22;16889;67.864;24.990;2023-12-07T17:32:41;-10.30;99.90
30063;DHT22;16889;67.864;24.990;2023-12-07T17:37:27;-10.20;99.90
30063;DHT22;16889;67.864;24.990;2023-12-07T17:42:13;-10.30;99.90
30063;DHT22;16889;67.864;24.990;2023-12-07T17:46:59;-10.30;99.90
30063;DHT22;16889;67.864;24.990;2023-12-07T17:51:46;-10.30;99.90
30063;DHT22;16889;67.864;24.990;2023-12-07T17:56:32;-10.20;99.90
30063;DHT22;16889;67.864;24.990;2023-12-07T18:01:21;-10.10;99.90
30063;DHT22;16889;67.864;24.990;2023-12-07T18:06:08;-10.10;99.90
30063;DHT22;16889;67.864;24.990;2023-12-07T18:10:54;-10.00;99.90
30063;DHT22;16889;67.864;24.990;2023-12-07T18:15:40;-9.90;99.90
30063;DHT22;16889;67.864;24.990;2023-12-07T18:20:27;-9.90;99.90
30063;DHT22;16889;67.864;24.990;2023-12-07T18:25:13;-9.90;99.90
30063;DHT22;16889;67.864;24.990;2023-12-07T18:29:59;-9.80;99.90
30063;DHT22;16889;67.864;24.990;2023-12-07T18:34:45;-9.80;99.90
30063;DHT22;16889;67.864;24.990;2023-12-07T18:39:31;-9.70;99.90
30063;DHT22;16889;67.864;24.990;2023-12-07T18:44:17;-9.60;99.90
30063;DHT22;16889;67.864;24.990;2023-12-07T18:49:03;-9.50;99.90
30063;DHT22;16889;67.864;24.990;2023-12-07T18:53:49;-9.50;99.90
30063;DHT22;16889;67.864;24.990;2023-12-07T18:58:35;-9.40;99.90
30063;DHT22;16889;67.864;24.990;2023-12-07T19:03:21;-9.40;99.90
30063;DHT22;16889;67.864;24.990;2023-12-07T19:08:11;-9.40;99.90
30063;DHT22;16889;67.864;24.990;2023-12-07T19:12:57;-9.40;99.90
30063;DHT22;16889;67.864;24.990;2023-12-07T19:17:43;-9.20;99.90
30063;DHT22;16889;67.864;24.990;2023-12-07T19:22:29;-9.30;99.90
30063;DHT22;16889;67.864;24.990;2023-12-07T19:27:15;-9.30;99.90
30063;DHT22;16889;67.864;24.990;2023-12-07T19:32:01;-9.30;99.90
30063;DHT22;16889;67.864;24.990;2023-12-07T19:36:47;-9.30;99.90
30063;DHT22;16889;67.864;24.990;2023-12-07T19:41:34;-9.30;99.90
30063;DHT22;16889;67.864;24.990;2023-12-07T19:46:24;-9.30;99.90
30063;DHT22;16889;67.864;24.990;2023-12-07T19:51:10;-9.30;99.90
30063;DHT22;16889;67.864;24.990;2023-12-07T19:55:56;-9.20;99.90
30063;DHT22;16889;67.864;24.990;2023-12-07T20:00:42;-9.20;99.90
30063;DHT22;16889;67.864;24.990;2023-12-07T20:05:28;-9.10;99.90
30063;DHT22;16889;67.864;24.990;2023-12-07T20:10:15;-9.00;99.90
30063;DHT22;16889;67.864;24.990;2023-12-07T20:15:02;-9.10;99.90
30063;DHT22;16889;67.864;24.990;2023-12-07T20:19:49;-9.00;99.90
30063;DHT22;16889;67.864;24.990;2023-12-07T20:24:37;-9.00;99.90
30063;DHT22;16889;67.864;24.990;2023-12-07T20:29:27;-9.00;99.90
30063;DHT22;16889;67.864;24.990;2023-12-07T20:34:13;-9.00;99.90
30063;DHT22;16889;67.864;24.990;2023-12-07T20:38:59;-8.90;99.90
30063;DHT22;16889;67.864;24.990;2023-12-07T20:43:45;-8.90;99.90
30063;DHT22;16889;67.864;24.990;2023-12-07T20:48:32;-9.00;99.90
30063;DHT22;16889;67.864;24.990;2023-12-07T20:53:17;-8.90;99.90
30063;DHT22;16889;67.864;24.990;2023-12-07T20:58:03;-8.90;99.90
30063;DHT22;16889;67.864;24.990;2023-12-07T21:02:50;-8.90;99.90
30063;DHT22;16889;67.864;24.990;2023-12-07T21:07:36;-8.90;99.90
30063;DHT22;16889;67.864;24.990;2023-12-07T21:12:22;-8.90;99.90
30063;DHT22;16889;67.864;24.990;2023-12-07T21:17:09;-9.00;99.90
30063;DHT22;16889;67.864;24.990;2023-12-07T21:21:58;-9.10;99.90
30063;DHT22;16889;67.864;24.990;2023-12-07T21:26:45;-9.20;99.90
30063;DHT22;16889;67.864;24.990;2023-12-07T21:31:31;-9.20;99.90
30063;DHT22;16889;67.864;24.990;2023-12-07T21:36:17;-9.10;99.90
30063;DHT22;16889;67.864;24.990;2023-12-07T21:41:03;-9.20;99.90
30063;DHT22;16889;67.864;24.990;2023-12-07T21:45:50;-9.10;99.90
30063;DHT22;16889;67.864;24.990;2023-12-07T21:50:36;-9.20;99.90
30063;DHT22;16889;67.864;24.990;2023-12-07T21:55:22;-9.30;99.90
30063;DHT22;16889;67.864;24.990;2023-12-07T22:00:08;-9.30;99.90
30063;DHT22;16889;67.864;24.990;2023-12-07T22:04:55;-9.40;99.90
30063;DHT22;16889;67.864;24.990;2023-12-07T22:09:41;-9.60;99.90
30063;DHT22;16889;67.864;24.990;2023-12-07T22:14:27;-9.60;99.90
30063;DHT22;16889;67.864;24.990;2023-12-07T22:19:15;-9.70;99.90
30063;DHT22;16889;67.864;24.990;2023-12-07T22:24:01;-9.90;99.90
30063;DHT22;16889;67.864;24.990;2023-12-07T22:28:47;-9.90;99.90
30063;DHT22;16889;67.864;24.990;2023-12-07T22:33:33;-10.00;99.90
30063;DHT22;16889;67.864;24.990;2023-12-07T22:38:19;-10.00;99.90
30063;DHT22;16889;67.864;24.990;2023-12-07T22:43:06;-10.00;99.90
30063;DHT22;16889;67.864;24.990;2023-12-07T22:47:52;-10.00;99.90
30063;DHT22;16889;67.864;24.990;2023-12-07T22:52:38;-10.00;99.90
30063;DHT22;16889;67.864;24.990;2023-12-07T22:57:24;-10.00;99.90
30063;DHT22;16889;67.864;24.990;2023-12-07T23:02:10;-10.00;99.90
30063;DHT22;16889;67.864;24.990;2023-12-07T23:06:56;-10.00;99.90
30063;DHT22;16889;67.864;24.990;2023-12-07T23:11:42;-10.00;99.90
30063;DHT22;16889;67.864;24.990;2023-12-07T23:16:28;-10.10;99.90
30063;DHT22;16889;67.864;24.990;2023-12-07T23:21:14;-10.20;99.90
30063;DHT22;16889;67.864;24.990;2023-12-07T23:26:00;-10.20;99.90
30063;DHT22;16889;67.864;24.990;2023-12-07T23:30:47;-10.30;99.90
30063;DHT22;16889;67.864;24.990;2023-12-07T23:35:33;-10.30;99.90
30063;DHT22;16889;67.864;24.990;2023-12-07T23:40:19;-10.30;99.90
30063;DHT22;16889;67.864;24.990;2023-12-07T23:45:06;-10.30;99.90
30063;DHT22;16889;67.864;24.990;2023-12-07T23:49:52;-10.30;99.90
30063;DHT22;16889;67.864;24.990;2023-12-07T23:54:38;-10.30;99.90
30063;DHT22;16889;67.864;24.990;2023-12-07T23:59:24;-10.40;99.90
